createdAt,value
2023-04-04T00:01:45.643Z,101186.03
2023-04-04T00:06:47.786Z,101188.56
2023-04-04T00:11:49.222Z,101180.31
2023-04-04T00:16:50.594Z,101172.53
2023-04-04T00:21:51.988Z,101172.75
2023-04-04T00:26:53.598Z,101159.94
2023-04-04T00:31:55.324Z,101163.97
2023-04-04T00:36:56.762Z,101162.44
2023-04-04T00:41:58.218Z,101165.78
2023-04-04T00:46:59.592Z,101166.66
2023-04-04T00:52:00.970Z,101153.03
2023-04-04T00:57:03.013Z,101158.50
2023-04-04T01:02:04.436Z,101150.91
2023-04-04T01:07:05.810Z,101152.53
2023-04-04T01:12:07.270Z,101147.69
2023-04-04T01:17:08.655Z,101145.44
2023-04-04T01:22:10.285Z,101145.69
2023-04-04T01:27:11.656Z,101142.53
2023-04-04T01:32:14.023Z,101139.53
2023-04-04T01:37:38.200Z,101134.88
2023-04-04T01:42:39.918Z,101136.56
2023-04-04T01:47:41.429Z,101130.31
2023-04-04T01:52:42.875Z,101128.63
2023-04-04T01:57:44.250Z,101112.03
2023-04-04T02:02:45.912Z,101110.69
2023-04-04T02:07:51.140Z,101104.19
2023-04-04T02:12:53.168Z,101102.31
2023-04-04T02:17:54.608Z,101107.19
2023-04-04T02:22:56.125Z,101100.69
2023-04-04T02:27:57.530Z,101108.22
2023-04-04T02:32:59.785Z,101105.22
2023-04-04T02:38:01.615Z,101105.22
2023-04-04T02:43:02.984Z,101100.19
2023-04-04T02:48:04.583Z,101098.16
2023-04-04T02:53:06.025Z,101091.81
2023-04-04T02:58:07.398Z,101088.81
2023-04-04T03:03:08.986Z,101090.75
2023-04-04T03:08:10.778Z,101093.06
2023-04-04T03:13:12.293Z,101098.16
2023-04-04T03:18:13.667Z,101097.94
2023-04-04T03:23:15.075Z,101096.00
2023-04-04T03:28:16.834Z,101094.50
2023-04-04T03:33:19.253Z,101097.06
2023-04-04T03:38:20.626Z,101095.81
2023-04-04T03:43:21.997Z,101092.03
2023-04-04T03:48:23.422Z,101091.38
2023-04-04T03:53:25.589Z,101086.75
2023-04-04T03:58:28.804Z,101084.69
2023-04-04T04:03:30.521Z,101077.28
2023-04-04T04:08:32.101Z,101088.22
2023-04-04T04:13:38.604Z,101088.22
2023-04-04T04:18:40.059Z,101083.59
2023-04-04T04:23:41.426Z,101094.28
2023-04-04T04:28:42.812Z,101095.16
2023-04-04T04:33:44.200Z,101100.25
2023-04-04T04:38:45.575Z,101094.50
2023-04-04T04:43:49.914Z,101102.91
2023-04-04T04:48:51.557Z,101094.94
2023-04-04T04:53:52.983Z,101099.38
2023-04-04T04:58:54.543Z,101092.66
2023-04-04T05:03:55.988Z,101100.41
2023-04-04T05:08:57.619Z,101107.09
2023-04-04T05:13:59.085Z,101105.00
2023-04-04T05:19:00.486Z,101114.44
2023-04-04T05:24:02.680Z,101119.72
2023-04-04T05:29:04.102Z,101118.06
2023-04-04T05:34:08.345Z,101125.78
2023-04-04T05:39:09.904Z,101137.97
2023-04-04T05:44:11.432Z,101127.25
2023-04-04T05:49:12.830Z,101134.88
2023-04-04T05:54:14.197Z,101135.13
2023-04-04T05:59:16.381Z,101143.72
2023-04-04T06:04:17.852Z,101136.72
2023-04-04T06:09:19.225Z,101139.25
2023-04-04T06:14:20.760Z,101139.06
2023-04-04T06:19:22.135Z,101136.41
2023-04-04T06:24:23.606Z,101132.13
2023-04-04T06:29:26.046Z,101130.84
2023-04-04T06:34:27.440Z,101129.16
2023-04-04T06:39:29.711Z,101125.63
2023-04-04T06:44:31.172Z,101128.16
2023-04-04T06:49:33.326Z,101131.94
2023-04-04T06:54:35.711Z,101134.22
2023-04-04T06:59:37.131Z,101120.13
2023-04-04T07:04:39.625Z,101126.88
2023-04-04T07:09:41.103Z,101118.88
2023-04-04T07:14:42.601Z,101117.66
2023-04-04T07:19:44.107Z,101119.31
2023-04-04T07:24:45.653Z,101120.13
2023-04-04T07:29:47.371Z,101114.25
2023-04-04T07:34:49.536Z,101121.19
2023-04-04T07:39:51.047Z,101117.25
2023-04-04T07:44:52.525Z,101125.63
2023-04-04T07:49:53.926Z,101125.38
2023-04-04T07:54:55.301Z,101121.41
2023-04-04T07:59:56.681Z,101118.25
2023-04-04T08:04:58.083Z,101116.38
2023-04-04T08:09:59.462Z,101122.06
2023-04-04T08:15:01.866Z,101113.81
2023-04-04T08:20:04.016Z,101117.59
2023-04-04T08:25:05.742Z,101111.28
2023-04-04T08:30:09.111Z,101106.69
2023-04-04T08:35:10.594Z,101104.41
2023-04-04T08:40:12.475Z,101095.56
2023-04-04T08:45:17.013Z,101104.34
2023-04-04T08:50:18.541Z,101092.13
2023-04-04T08:55:20.729Z,101102.91
2023-04-04T09:00:22.730Z,101098.53
2023-04-04T09:05:25.491Z,101087.19
2023-04-04T09:10:26.923Z,101090.94
2023-04-04T09:15:28.365Z,101094.50
2023-04-04T09:20:42.973Z,101096.16
2023-04-04T09:26:02.604Z,101083.31
2023-04-04T09:31:07.766Z,101090.31
2023-04-04T09:36:13.282Z,101087.34
2023-04-04T09:41:15.080Z,101077.00
2023-04-04T09:46:19.265Z,101076.81
2023-04-04T09:51:20.794Z,101084.16
2023-04-04T09:56:22.357Z,101088.22
2023-04-04T10:01:23.853Z,101094.06
2023-04-04T10:06:25.469Z,101077.00
2023-04-04T10:11:33.932Z,101089.41
2023-04-04T10:16:37.566Z,101075.13
2023-04-04T10:21:38.998Z,101067.34
2023-04-04T10:26:40.501Z,101073.28
2023-04-04T10:31:42.961Z,101079.56
2023-04-04T10:36:51.746Z,101069.88
2023-04-04T10:41:53.280Z,101064.59
2023-04-04T10:46:54.851Z,101059.31
2023-04-04T10:51:57.423Z,101056.66
2023-04-04T10:57:01.986Z,101054.78
2023-04-04T11:02:03.464Z,101054.28
2023-04-04T11:07:16.957Z,101048.63
2023-04-04T11:12:23.871Z,101041.69
2023-04-04T11:17:44.672Z,101040.00
2023-04-04T11:22:46.068Z,101036.28
2023-04-04T11:27:48.617Z,101040.69
2023-04-04T11:33:03.867Z,101020.88
2023-04-04T11:38:14.644Z,101018.09
2023-04-04T11:43:16.948Z,101021.44
2023-04-04T11:48:18.931Z,101004.88
2023-04-04T11:53:20.545Z,101011.44
2023-04-04T11:58:21.935Z,101007.38
2023-04-04T12:03:23.704Z,101000.00
2023-04-04T12:08:25.198Z,100988.06
2023-04-04T12:13:30.951Z,100993.75
2023-04-04T12:18:32.664Z,100992.50
2023-04-04T12:23:34.556Z,100981.59
2023-04-04T12:28:37.995Z,100974.78
2023-04-04T12:33:42.382Z,100973.50
2023-04-04T12:38:58.215Z,100957.72
2023-04-04T12:44:07.525Z,100964.91
2023-04-04T12:49:11.735Z,100963.91
2023-04-04T12:54:27.895Z,100957.94
2023-04-04T12:59:30.148Z,100957.94
2023-04-04T13:04:31.836Z,100948.44
2023-04-04T13:09:35.753Z,100948.50
2023-04-04T13:14:57.420Z,100955.50
2023-04-04T13:19:59.168Z,100944.91
2023-04-04T13:25:00.555Z,100937.75
2023-04-04T13:30:02.557Z,100931.00
2023-04-04T13:35:04.170Z,100930.19
2023-04-04T13:40:06.006Z,100922.25
2023-04-04T13:45:07.879Z,100916.56
2023-04-04T13:50:09.307Z,100918.81
2023-04-04T13:55:10.711Z,100907.84
2023-04-04T14:00:12.996Z,100911.00
2023-04-04T14:05:14.474Z,100904.31
2023-04-04T14:10:16.784Z,100890.47
2023-04-04T14:15:18.513Z,100890.47
2023-04-04T14:20:20.991Z,100887.50
2023-04-04T14:25:22.409Z,100884.50
2023-04-04T14:30:23.903Z,100889.34
2023-04-04T14:35:25.343Z,100882.66
2023-04-04T14:40:28.417Z,100878.50
2023-04-04T14:45:30.059Z,100876.81
2023-04-04T14:50:31.474Z,100884.13
2023-04-04T14:55:32.855Z,100879.25
2023-04-04T15:00:34.568Z,100872.94
2023-04-04T15:05:36.413Z,100860.59
2023-04-04T15:10:37.919Z,100863.34
2023-04-04T15:15:39.551Z,100857.66
2023-04-04T15:20:41.179Z,100868.75
2023-04-04T15:25:42.685Z,100862.25
2023-04-04T15:30:44.081Z,100870.19
2023-04-04T15:35:46.166Z,100862.53
2023-04-04T15:40:47.548Z,100857.97
2023-04-04T15:45:48.925Z,100852.66
2023-04-04T15:50:50.682Z,100857.22
2023-04-04T15:55:52.054Z,100856.97
2023-04-04T16:00:53.648Z,100865.47
2023-04-04T16:05:55.218Z,100854.38
2023-04-04T16:10:59.700Z,100853.09
2023-04-04T16:16:01.133Z,100857.66
2023-04-04T16:21:05.610Z,100852.59
2023-04-04T16:26:07.116Z,100855.78
2023-04-04T16:31:08.564Z,100856.28
2023-04-04T16:36:10.075Z,100850.41
2023-04-04T16:41:11.448Z,100848.75
2023-04-04T16:46:12.863Z,100849.31
2023-04-04T16:51:14.257Z,100840.03
2023-04-04T16:56:15.894Z,100844.28
2023-04-04T17:01:20.497Z,100833.41
2023-04-04T17:06:22.006Z,100826.88
2023-04-04T17:11:23.431Z,100827.66
2023-04-04T17:16:26.143Z,100835.44
2023-04-04T17:21:27.576Z,100834.00
2023-04-04T17:26:28.972Z,100825.59
2023-04-04T17:31:30.884Z,100834.47
2023-04-04T17:36:32.349Z,100829.53
2023-04-04T17:41:33.867Z,100833.97
2023-04-04T17:46:36.057Z,100835.09
2023-04-04T17:51:37.742Z,100838.28
2023-04-04T17:56:39.125Z,100836.19
2023-04-04T18:01:40.615Z,100839.91
2023-04-04T18:06:42.155Z,100842.84
2023-04-04T18:11:43.797Z,100838.28
2023-04-04T18:16:45.290Z,100836.97
2023-04-04T18:21:48.148Z,100843.34
2023-04-04T18:26:52.008Z,100840.56
2023-04-04T18:31:53.406Z,100844.75
2023-04-04T18:36:54.804Z,100849.97
2023-04-04T18:41:56.538Z,100847.91
2023-04-04T18:47:00.326Z,100856.41
2023-04-04T18:52:01.745Z,100858.69
2023-04-04T18:57:03.171Z,100856.97
2023-04-04T19:02:04.587Z,100860.53
2023-04-04T19:07:08.775Z,100855.56
2023-04-04T19:12:10.207Z,100856.84
2023-04-04T19:17:15.269Z,100862.03
2023-04-04T19:22:16.778Z,100845.19
2023-04-04T19:27:18.219Z,100850.81
2023-04-04T19:32:19.655Z,100845.38
2023-04-04T19:37:21.055Z,100850.50
2023-04-04T19:42:26.572Z,100855.31
2023-04-04T19:47:27.956Z,100842.00
2023-04-04T19:52:29.396Z,100849.59
2023-04-04T19:57:30.831Z,100847.75
2023-04-04T20:02:36.080Z,100852.22
2023-04-04T20:07:37.546Z,100848.41
2023-04-04T20:12:38.969Z,100839.47
2023-04-04T20:17:40.361Z,100840.56
2023-04-04T20:22:41.779Z,100852.59
2023-04-04T20:27:43.247Z,100845.06
2023-04-04T20:32:44.644Z,100847.31
2023-04-04T20:37:46.014Z,100842.00
2023-04-04T20:42:47.721Z,100847.69
2023-04-04T20:47:49.793Z,100841.84
2023-04-04T20:52:53.092Z,100857.22
2023-04-04T20:57:56.894Z,100847.56
2023-04-04T21:03:07.189Z,100844.56
2023-04-04T21:08:37.871Z,100854.88
2023-04-04T21:13:40.580Z,100842.09
2023-04-04T21:18:42.047Z,100842.34
2023-04-04T21:23:50.425Z,100832.00
2023-04-04T21:28:52.180Z,100832.56
2023-04-04T21:33:54.217Z,100823.06
2023-04-04T21:38:56.538Z,100823.53
2023-04-04T21:43:59.257Z,100824.41
2023-04-04T21:49:00.778Z,100818.50
2023-04-04T21:54:02.415Z,100817.59
2023-04-04T21:59:05.415Z,100814.88
2023-04-04T22:04:06.844Z,100806.75
2023-04-04T22:09:08.206Z,100803.47
2023-04-04T22:14:09.618Z,100805.53
2023-04-04T22:19:11.743Z,100798.72
2023-04-04T22:24:13.731Z,100803.94
2023-04-04T22:29:15.334Z,100798.31
2023-04-04T22:34:16.749Z,100803.03
2023-04-04T22:39:20.340Z,100795.03
2023-04-04T22:44:21.727Z,100794.53
2023-04-04T22:49:23.113Z,100790.72
2023-04-04T22:54:24.494Z,100797.47
2023-04-04T22:59:25.891Z,100788.28
2023-04-04T23:04:27.817Z,100795.03
2023-04-04T23:09:29.994Z,100797.47
2023-04-04T23:14:31.410Z,100795.97
2023-04-04T23:19:32.818Z,100790.97
2023-04-04T23:24:34.235Z,100777.34
2023-04-04T23:29:35.867Z,100782.59
2023-04-04T23:34:37.255Z,100776.47
2023-04-04T23:39:38.649Z,100782.91
2023-04-04T23:44:40.269Z,100782.06
2023-04-04T23:49:41.638Z,100780.47
2023-04-04T23:54:43.046Z,100768.31
2023-04-04T23:59:44.427Z,100774.41
